sensor_id;sensor_type;location;lat;lon;timestamp;P1;durP1;ratioP1;P2;durP2;ratioP2
19944;SDS011;10134;50.952;6.930;2023-12-20T00:00:58;9.20;;;6.63;;
19944;SDS011;10134;50.952;6.930;2023-12-20T00:03:27;9.70;;;7.20;;
19944;SDS011;10134;50.952;6.930;2023-12-20T00:06:03;9.93;;;7.15;;
19944;SDS011;10134;50.952;6.930;2023-12-20T00:08:32;12.07;;;7.25;;
19944;SDS011;10134;50.952;6.930;2023-12-20T00:11:02;10.98;;;7.15;;
19944;SDS011;10134;50.952;6.930;2023-12-20T00:13:31;9.45;;;6.80;;
19944;SDS011;10134;50.952;6.930;2023-12-20T00:16:00;10.40;;;6.80;;
19944;SDS011;10134;50.952;6.930;2023-12-20T00:18:28;10.40;;;7.40;;
19944;SDS011;10134;50.952;6.930;2023-12-20T00:20:57;9.60;;;6.47;;
19944;SDS011;10134;50.952;6.930;2023-12-20T00:23:26;7.93;;;6.25;;
19944;SDS011;10134;50.952;6.930;2023-12-20T00:25:54;9.80;;;6.20;;
19944;SDS011;10134;50.952;6.930;2023-12-20T00:28:24;9.95;;;6.70;;
19944;SDS011;10134;50.952;6.930;2023-12-20T00:30:53;9.13;;;5.75;;
19944;SDS011;10134;50.952;6.930;2023-12-20T00:33:22;7.53;;;5.50;;
19944;SDS011;10134;50.952;6.930;2023-12-20T00:35:51;9.48;;;6.00;;
19944;SDS011;10134;50.952;6.930;2023-12-20T00:38:19;6.82;;;4.88;;
19944;SDS011;10134;50.952;6.930;2023-12-20T00:40:48;9.25;;;5.35;;
19944;SDS011;10134;50.952;6.930;2023-12-20T00:43:17;9.40;;;5.03;;
19944;SDS011;10134;50.952;6.930;2023-12-20T00:45:47;7.07;;;4.85;;
19944;SDS011;10134;50.952;6.930;2023-12-20T00:48:16;6.57;;;4.57;;
19944;SDS011;10134;50.952;6.930;2023-12-20T00:50:45;7.95;;;4.50;;
19944;SDS011;10134;50.952;6.930;2023-12-20T00:53:14;5.80;;;3.80;;
19944;SDS011;10134;50.952;6.930;2023-12-20T00:55:42;6.20;;;4.45;;
19944;SDS011;10134;50.952;6.930;2023-12-20T00:58:11;6.22;;;4.00;;
19944;SDS011;10134;50.952;6.930;2023-12-20T01:00:42;5.22;;;3.72;;
19944;SDS011;10134;50.952;6.930;2023-12-20T01:03:13;6.28;;;3.70;;
19944;SDS011;10134;50.952;6.930;2023-12-20T01:05:42;5.38;;;3.42;;
19944;SDS011;10134;50.952;6.930;2023-12-20T01:08:11;5.53;;;4.18;;
19944;SDS011;10134;50.952;6.930;2023-12-20T01:10:39;5.90;;;4.05;;
19944;SDS011;10134;50.952;6.930;2023-12-20T01:13:08;5.63;;;3.97;;
19944;SDS011;10134;50.952;6.930;2023-12-20T01:15:37;6.88;;;4.30;;
19944;SDS011;10134;50.952;6.930;2023-12-20T01:18:06;6.68;;;4.25;;
19944;SDS011;10134;50.952;6.930;2023-12-20T01:20:36;5.50;;;3.70;;
19944;SDS011;10134;50.952;6.930;2023-12-20T01:23:05;4.97;;;3.70;;
19944;SDS011;10134;50.952;6.930;2023-12-20T01:25:33;5.45;;;3.42;;
19944;SDS011;10134;50.952;6.930;2023-12-20T01:28:02;8.88;;;4.25;;
19944;SDS011;10134;50.952;6.930;2023-12-20T01:30:31;7.68;;;4.70;;
19944;SDS011;10134;50.952;6.930;2023-12-20T01:33:00;9.63;;;4.82;;
19944;SDS011;10134;50.952;6.930;2023-12-20T01:35:29;9.25;;;5.43;;
19944;SDS011;10134;50.952;6.930;2023-12-20T01:37:59;7.55;;;4.60;;
19944;SDS011;10134;50.952;6.930;2023-12-20T01:40:28;12.07;;;5.60;;
19944;SDS011;10134;50.952;6.930;2023-12-20T01:43:00;10.32;;;5.75;;
19944;SDS011;10134;50.952;6.930;2023-12-20T01:45:29;12.20;;;6.68;;
19944;SDS011;10134;50.952;6.930;2023-12-20T01:47:58;9.30;;;6.18;;
19944;SDS011;10134;50.952;6.930;2023-12-20T01:50:28;15.48;;;7.88;;
19944;SDS011;10134;50.952;6.930;2023-12-20T01:53:00;14.23;;;6.82;;
19944;SDS011;10134;50.952;6.930;2023-12-20T01:55:31;12.20;;;7.00;;
19944;SDS011;10134;50.952;6.930;2023-12-20T01:58:02;13.00;;;7.60;;
19944;SDS011;10134;50.952;6.930;2023-12-20T02:00:32;15.45;;;8.75;;
19944;SDS011;10134;50.952;6.930;2023-12-20T02:03:02;19.30;;;8.35;;
19944;SDS011;10134;50.952;6.930;2023-12-20T02:05:32;13.93;;;6.63;;
19944;SDS011;10134;50.952;6.930;2023-12-20T02:08:03;16.77;;;7.60;;
19944;SDS011;10134;50.952;6.930;2023-12-20T02:10:32;12.65;;;6.80;;
19944;SDS011;10134;50.952;6.930;2023-12-20T02:13:03;13.48;;;7.07;;
19944;SDS011;10134;50.952;6.930;2023-12-20T02:15:32;19.37;;;6.83;;
19944;SDS011;10134;50.952;6.930;2023-12-20T02:18:00;12.75;;;7.78;;
19944;SDS011;10134;50.952;6.930;2023-12-20T02:20:29;14.18;;;7.07;;
19944;SDS011;10134;50.952;6.930;2023-12-20T02:22:59;12.85;;;7.05;;
19944;SDS011;10134;50.952;6.930;2023-12-20T02:25:27;17.90;;;6.90;;
19944;SDS011;10134;50.952;6.930;2023-12-20T02:27:56;12.32;;;5.60;;
19944;SDS011;10134;50.952;6.930;2023-12-20T02:30:25;12.57;;;5.20;;
19944;SDS011;10134;50.952;6.930;2023-12-20T02:32:53;13.80;;;4.55;;
19944;SDS011;10134;50.952;6.930;2023-12-20T02:35:22;9.90;;;4.13;;
19944;SDS011;10134;50.952;6.930;2023-12-20T02:37:51;12.75;;;4.75;;
19944;SDS011;10134;50.952;6.930;2023-12-20T02:40:21;8.15;;;3.65;;
19944;SDS011;10134;50.952;6.930;2023-12-20T02:42:50;7.18;;;3.60;;
19944;SDS011;10134;50.952;6.930;2023-12-20T02:45:19;10.57;;;4.07;;
19944;SDS011;10134;50.952;6.930;2023-12-20T02:47:47;13.87;;;4.43;;
19944;SDS011;10134;50.952;6.930;2023-12-20T02:50:16;9.17;;;4.07;;
19944;SDS011;10134;50.952;6.930;2023-12-20T02:52:45;14.77;;;4.27;;
19944;SDS011;10134;50.952;6.930;2023-12-20T02:55:14;15.50;;;4.00;;
19944;SDS011;10134;50.952;6.930;2023-12-20T02:57:44;8.27;;;2.93;;
19944;SDS011;10134;50.952;6.930;2023-12-20T03:00:13;11.20;;;3.05;;
19944;SDS011;10134;50.952;6.930;2023-12-20T03:02:42;5.47;;;2.47;;
19944;SDS011;10134;50.952;6.930;2023-12-20T03:05:11;11.00;;;3.00;;
19944;SDS011;10134;50.952;6.930;2023-12-20T03:07:40;10.00;;;2.33;;
19944;SDS011;10134;50.952;6.930;2023-12-20T03:10:09;11.03;;;2.77;;
19944;SDS011;10134;50.952;6.930;2023-12-20T03:12:51;8.63;;;2.30;;
19944;SDS011;10134;50.952;6.930;2023-12-20T03:15:19;4.13;;;2.20;;
19944;SDS011;10134;50.952;6.930;2023-12-20T03:17:48;7.97;;;2.50;;
19944;SDS011;10134;50.952;6.930;2023-12-20T03:20:17;8.67;;;2.60;;
19944;SDS011;10134;50.952;6.930;2023-12-20T03:22:46;6.40;;;2.60;;
19944;SDS011;10134;50.952;6.930;2023-12-20T03:25:14;12.47;;;2.67;;
19944;SDS011;10134;50.952;6.930;2023-12-20T03:27:43;5.97;;;2.30;;
19944;SDS011;10134;50.952;6.930;2023-12-20T03:30:14;7.10;;;2.40;;
19944;SDS011;10134;50.952;6.930;2023-12-20T03:32:43;5.85;;;2.35;;
19944;SDS011;10134;50.952;6.930;2023-12-20T03:35:12;4.90;;;2.17;;
19944;SDS011;10134;50.952;6.930;2023-12-20T03:37:41;12.00;;;3.07;;
19944;SDS011;10134;50.952;6.930;2023-12-20T03:40:10;6.23;;;1.97;;
19944;SDS011;10134;50.952;6.930;2023-12-20T03:42:39;11.52;;;2.47;;
19944;SDS011;10134;50.952;6.930;2023-12-20T03:45:08;9.50;;;2.63;;
19944;SDS011;10134;50.952;6.930;2023-12-20T03:47:38;6.17;;;2.60;;
19944;SDS011;10134;50.952;6.930;2023-12-20T03:50:07;7.47;;;2.60;;
19944;SDS011;10134;50.952;6.930;2023-12-20T03:52:36;8.07;;;2.50;;
19944;SDS011;10134;50.952;6.930;2023-12-20T03:55:06;8.70;;;2.47;;
19944;SDS011;10134;50.952;6.930;2023-12-20T03:57:35;11.83;;;2.83;;
19944;SDS011;10134;50.952;6.930;2023-12-20T04:00:04;12.93;;;2.80;;
19944;SDS011;10134;50.952;6.930;2023-12-20T04:02:41;10.57;;;2.37;;
19944;SDS011;10134;50.952;6.930;2023-12-20T04:05:10;11.83;;;2.83;;
19944;SDS011;10134;50.952;6.930;2023-12-20T04:07:39;7.67;;;2.53;;
19944;SDS011;10134;50.952;6.930;2023-12-20T04:10:08;10.17;;;3.43;;
19944;SDS011;10134;50.952;6.930;2023-12-20T04:12:37;6.95;;;2.42;;
19944;SDS011;10134;50.952;6.930;2023-12-20T04:15:06;11.97;;;3.33;;
19944;SDS011;10134;50.952;6.930;2023-12-20T04:17:38;12.70;;;2.67;;
19944;SDS011;10134;50.952;6.930;2023-12-20T04:20:09;9.27;;;3.20;;
19944;SDS011;10134;50.952;6.930;2023-12-20T04:22:38;9.20;;;3.03;;
19944;SDS011;10134;50.952;6.930;2023-12-20T04:25:07;8.27;;;3.10;;
19944;SDS011;10134;50.952;6.930;2023-12-20T04:27:36;11.87;;;2.73;;
19944;SDS011;10134;50.952;6.930;2023-12-20T04:30:05;9.83;;;3.90;;
19944;SDS011;10134;50.952;6.930;2023-12-20T04:32:36;10.70;;;4.97;;
19944;SDS011;10134;50.952;6.930;2023-12-20T04:35:04;10.33;;;3.40;;
19944;SDS011;10134;50.952;6.930;2023-12-20T04:37:36;8.00;;;3.00;;
19944;SDS011;10134;50.952;6.930;2023-12-20T04:40:05;12.10;;;3.67;;
19944;SDS011;10134;50.952;6.930;2023-12-20T04:42:35;13.17;;;3.40;;
19944;SDS011;10134;50.952;6.930;2023-12-20T04:45:04;11.95;;;2.97;;
19944;SDS011;10134;50.952;6.930;2023-12-20T04:47:33;10.90;;;3.20;;
19944;SDS011;10134;50.952;6.930;2023-12-20T04:50:02;12.60;;;3.80;;
19944;SDS011;10134;50.952;6.930;2023-12-20T04:52:32;14.18;;;3.65;;
19944;SDS011;10134;50.952;6.930;2023-12-20T04:55:03;9.80;;;3.13;;
19944;SDS011;10134;50.952;6.930;2023-12-20T04:57:32;8.63;;;3.38;;
19944;SDS011;10134;50.952;6.930;2023-12-20T05:00:01;12.10;;;3.35;;
19944;SDS011;10134;50.952;6.930;2023-12-20T05:02:30;7.87;;;2.83;;
19944;SDS011;10134;50.952;6.930;2023-12-20T05:04:59;9.03;;;3.20;;
19944;SDS011;10134;50.952;6.930;2023-12-20T05:07:27;14.10;;;3.90;;
19944;SDS011;10134;50.952;6.930;2023-12-20T05:09:56;11.77;;;3.67;;
19944;SDS011;10134;50.952;6.930;2023-12-20T05:12:26;10.13;;;3.03;;
19944;SDS011;10134;50.952;6.930;2023-12-20T05:14:55;10.20;;;3.37;;
19944;SDS011;10134;50.952;6.930;2023-12-20T05:17:24;15.07;;;4.00;;
19944;SDS011;10134;50.952;6.930;2023-12-20T05:19:53;10.00;;;3.53;;
19944;SDS011;10134;50.952;6.930;2023-12-20T05:22:21;9.20;;;3.33;;
19944;SDS011;10134;50.952;6.930;2023-12-20T05:24:50;11.43;;;3.20;;
19944;SDS011;10134;50.952;6.930;2023-12-20T05:27:19;6.90;;;2.97;;
19944;SDS011;10134;50.952;6.930;2023-12-20T05:29:49;11.40;;;3.63;;
19944;SDS011;10134;50.952;6.930;2023-12-20T05:32:18;17.07;;;3.60;;
19944;SDS011;10134;50.952;6.930;2023-12-20T05:34:47;13.53;;;3.43;;
19944;SDS011;10134;50.952;6.930;2023-12-20T05:37:15;11.17;;;3.70;;
19944;SDS011;10134;50.952;6.930;2023-12-20T05:39:44;10.37;;;3.60;;
19944;SDS011;10134;50.952;6.930;2023-12-20T05:42:13;16.40;;;4.27;;
19944;SDS011;10134;50.952;6.930;2023-12-20T05:44:42;10.93;;;3.67;;
19944;SDS011;10134;50.952;6.930;2023-12-20T05:47:12;16.27;;;4.57;;
19944;SDS011;10134;50.952;6.930;2023-12-20T05:49:41;7.50;;;3.23;;
19944;SDS011;10134;50.952;6.930;2023-12-20T05:52:09;11.43;;;3.40;;
19944;SDS011;10134;50.952;6.930;2023-12-20T05:54:38;9.05;;;2.95;;
19944;SDS011;10134;50.952;6.930;2023-12-20T05:57:07;6.23;;;3.40;;
19944;SDS011;10134;50.952;6.930;2023-12-20T05:59:36;16.33;;;3.60;;
19944;SDS011;10134;50.952;6.930;2023-12-20T06:02:04;11.30;;;4.47;;
19944;SDS011;10134;50.952;6.930;2023-12-20T06:04:35;21.00;;;5.23;;
19944;SDS011;10134;50.952;6.930;2023-12-20T06:07:03;11.93;;;3.60;;
19944;SDS011;10134;50.952;6.930;2023-12-20T06:09:32;17.43;;;3.57;;
19944;SDS011;10134;50.952;6.930;2023-12-20T06:12:01;16.50;;;3.93;;
19944;SDS011;10134;50.952;6.930;2023-12-20T06:14:30;24.13;;;3.92;;
19944;SDS011;10134;50.952;6.930;2023-12-20T06:16:59;10.53;;;3.43;;
19944;SDS011;10134;50.952;6.930;2023-12-20T06:19:28;15.33;;;4.00;;
19944;SDS011;10134;50.952;6.930;2023-12-20T06:21:58;12.37;;;3.97;;
19944;SDS011;10134;50.952;6.930;2023-12-20T06:24:27;10.50;;;3.30;;
19944;SDS011;10134;50.952;6.930;2023-12-20T06:26:57;10.77;;;3.37;;
19944;SDS011;10134;50.952;6.930;2023-12-20T06:29:26;9.40;;;2.97;;
19944;SDS011;10134;50.952;6.930;2023-12-20T06:31:55;10.13;;;3.57;;
19944;SDS011;10134;50.952;6.930;2023-12-20T06:34:23;12.80;;;3.70;;
19944;SDS011;10134;50.952;6.930;2023-12-20T06:36:52;10.32;;;3.85;;
19944;SDS011;10134;50.952;6.930;2023-12-20T06:39:23;12.17;;;3.33;;
19944;SDS011;10134;50.952;6.930;2023-12-20T06:41:51;13.23;;;3.50;;
19944;SDS011;10134;50.952;6.930;2023-12-20T06:44:20;16.60;;;3.70;;
19944;SDS011;10134;50.952;6.930;2023-12-20T06:46:49;12.70;;;3.90;;
19944;SDS011;10134;50.952;6.930;2023-12-20T06:49:17;8.98;;;3.65;;
19944;SDS011;10134;50.952;6.930;2023-12-20T06:51:46;11.63;;;3.40;;
19944;SDS011;10134;50.952;6.930;2023-12-20T06:54:15;13.57;;;3.43;;
19944;SDS011;10134;50.952;6.930;2023-12-20T06:56:45;13.00;;;3.57;;
19944;SDS011;10134;50.952;6.930;2023-12-20T06:59:14;17.00;;;4.13;;
19944;SDS011;10134;50.952;6.930;2023-12-20T07:01:45;11.83;;;3.03;;
19944;SDS011;10134;50.952;6.930;2023-12-20T07:04:16;14.33;;;4.73;;
19944;SDS011;10134;50.952;6.930;2023-12-20T07:06:48;10.07;;;4.17;;
19944;SDS011;10134;50.952;6.930;2023-12-20T07:09:18;12.37;;;3.47;;
19944;SDS011;10134;50.952;6.930;2023-12-20T07:11:48;12.10;;;3.60;;
19944;SDS011;10134;50.952;6.930;2023-12-20T07:14:17;12.23;;;4.22;;
19944;SDS011;10134;50.952;6.930;2023-12-20T07:16:45;10.67;;;3.20;;
19944;SDS011;10134;50.952;6.930;2023-12-20T07:19:14;15.57;;;4.10;;
19944;SDS011;10134;50.952;6.930;2023-12-20T07:21:43;8.33;;;3.00;;
19944;SDS011;10134;50.952;6.930;2023-12-20T07:24:12;14.67;;;3.90;;
19944;SDS011;10134;50.952;6.930;2023-12-20T07:26:40;13.77;;;3.73;;
19944;SDS011;10134;50.952;6.930;2023-12-20T07:29:11;9.13;;;3.47;;
19944;SDS011;10134;50.952;6.930;2023-12-20T07:31:40;15.33;;;3.83;;
19944;SDS011;10134;50.952;6.930;2023-12-20T07:34:08;13.60;;;4.13;;
19944;SDS011;10134;50.952;6.930;2023-12-20T07:36:37;10.37;;;3.30;;
19944;SDS011;10134;50.952;6.930;2023-12-20T07:39:06;8.23;;;3.77;;
19944;SDS011;10134;50.952;6.930;2023-12-20T07:41:35;11.52;;;4.20;;
19944;SDS011;10134;50.952;6.930;2023-12-20T07:44:04;12.77;;;4.33;;
19944;SDS011;10134;50.952;6.930;2023-12-20T07:46:34;15.87;;;4.33;;
19944;SDS011;10134;50.952;6.930;2023-12-20T07:49:04;7.97;;;3.80;;
19944;SDS011;10134;50.952;6.930;2023-12-20T07:51:35;13.30;;;4.53;;
19944;SDS011;10134;50.952;6.930;2023-12-20T07:54:04;12.17;;;4.23;;
19944;SDS011;10134;50.952;6.930;2023-12-20T07:56:35;12.45;;;3.65;;
19944;SDS011;10134;50.952;6.930;2023-12-20T07:59:04;15.83;;;4.20;;
19944;SDS011;10134;50.952;6.930;2023-12-20T08:01:39;19.52;;;4.18;;
19944;SDS011;10134;50.952;6.930;2023-12-20T08:04:09;8.93;;;3.38;;
19944;SDS011;10134;50.952;6.930;2023-12-20T08:06:38;11.53;;;4.30;;
19944;SDS011;10134;50.952;6.930;2023-12-20T08:09:06;16.57;;;4.57;;
19944;SDS011;10134;50.952;6.930;2023-12-20T08:11:35;16.07;;;4.53;;
19944;SDS011;10134;50.952;6.930;2023-12-20T08:14:04;16.37;;;4.27;;
19944;SDS011;10134;50.952;6.930;2023-12-20T08:16:33;11.70;;;4.13;;
19944;SDS011;10134;50.952;6.930;2023-12-20T08:19:04;17.90;;;4.13;;
19944;SDS011;10134;50.952;6.930;2023-12-20T08:21:32;13.27;;;3.90;;
19944;SDS011;10134;50.952;6.930;2023-12-20T08:24:05;7.47;;;3.87;;
19944;SDS011;10134;50.952;6.930;2023-12-20T08:26:34;8.30;;;3.60;;
19944;SDS011;10134;50.952;6.930;2023-12-20T08:29:03;10.33;;;3.53;;
19944;SDS011;10134;50.952;6.930;2023-12-20T08:31:32;12.97;;;4.00;;
19944;SDS011;10134;50.952;6.930;2023-12-20T08:34:01;12.13;;;4.07;;
19944;SDS011;10134;50.952;6.930;2023-12-20T08:36:35;8.48;;;3.58;;
19944;SDS011;10134;50.952;6.930;2023-12-20T08:39:04;15.38;;;4.95;;
19944;SDS011;10134;50.952;6.930;2023-12-20T08:41:35;13.18;;;4.47;;
19944;SDS011;10134;50.952;6.930;2023-12-20T08:44:05;7.93;;;4.03;;
19944;SDS011;10134;50.952;6.930;2023-12-20T08:46:34;9.07;;;4.15;;
19944;SDS011;10134;50.952;6.930;2023-12-20T08:49:05;13.52;;;4.07;;
19944;SDS011;10134;50.952;6.930;2023-12-20T08:51:34;8.77;;;4.03;;
19944;SDS011;10134;50.952;6.930;2023-12-20T08:54:07;18.20;;;3.50;;
19944;SDS011;10134;50.952;6.930;2023-12-20T08:56:36;11.98;;;4.47;;
19944;SDS011;10134;50.952;6.930;2023-12-20T08:59:05;13.52;;;3.65;;
19944;SDS011;10134;50.952;6.930;2023-12-20T09:01:37;15.83;;;3.80;;
19944;SDS011;10134;50.952;6.930;2023-12-20T09:04:07;9.55;;;3.17;;
19944;SDS011;10134;50.952;6.930;2023-12-20T09:06:36;8.88;;;2.97;;
19944;SDS011;10134;50.952;6.930;2023-12-20T09:09:06;10.57;;;3.75;;
19944;SDS011;10134;50.952;6.930;2023-12-20T09:11:43;15.93;;;3.92;;
19944;SDS011;10134;50.952;6.930;2023-12-20T09:14:13;13.70;;;3.80;;
19944;SDS011;10134;50.952;6.930;2023-12-20T09:16:45;10.02;;;3.83;;
19944;SDS011;10134;50.952;6.930;2023-12-20T09:19:16;14.68;;;3.75;;
19944;SDS011;10134;50.952;6.930;2023-12-20T09:21:45;11.77;;;3.50;;
19944;SDS011;10134;50.952;6.930;2023-12-20T09:24:15;14.15;;;3.47;;
19944;SDS011;10134;50.952;6.930;2023-12-20T09:26:47;11.37;;;3.63;;
19944;SDS011;10134;50.952;6.930;2023-12-20T09:29:16;10.05;;;3.10;;
19944;SDS011;10134;50.952;6.930;2023-12-20T09:31:48;13.17;;;3.33;;
19944;SDS011;10134;50.952;6.930;2023-12-20T09:34:19;8.50;;;3.00;;
19944;SDS011;10134;50.952;6.930;2023-12-20T09:36:49;7.18;;;3.40;;
19944;SDS011;10134;50.952;6.930;2023-12-20T09:39:19;7.73;;;3.33;;
19944;SDS011;10134;50.952;6.930;2023-12-20T09:41:54;12.50;;;2.80;;
19944;SDS011;10134;50.952;6.930;2023-12-20T09:44:29;11.40;;;3.07;;
19944;SDS011;10134;50.952;6.930;2023-12-20T09:47:19;12.63;;;3.30;;
19944;SDS011;10134;50.952;6.930;2023-12-20T09:49:53;14.83;;;4.07;;
19944;SDS011;10134;50.952;6.930;2023-12-20T09:52:24;12.63;;;3.35;;
19944;SDS011;10134;50.952;6.930;2023-12-20T09:54:54;12.17;;;3.20;;
19944;SDS011;10134;50.952;6.930;2023-12-20T09:57:29;11.27;;;3.17;;
19944;SDS011;10134;50.952;6.930;2023-12-20T09:59:58;13.93;;;3.50;;
19944;SDS011;10134;50.952;6.930;2023-12-20T10:02:42;16.80;;;3.53;;
19944;SDS011;10134;50.952;6.930;2023-12-20T10:05:19;14.88;;;4.13;;
19944;SDS011;10134;50.952;6.930;2023-12-20T10:07:55;13.17;;;3.40;;
19944;SDS011;10134;50.952;6.930;2023-12-20T10:10:25;11.98;;;3.60;;
19944;SDS011;10134;50.952;6.930;2023-12-20T10:13:10;10.32;;;3.00;;
19944;SDS011;10134;50.952;6.930;2023-12-20T10:15:41;6.30;;;2.77;;
19944;SDS011;10134;50.952;6.930;2023-12-20T10:18:12;12.40;;;3.03;;
19944;SDS011;10134;50.952;6.930;2023-12-20T10:20:43;7.77;;;2.50;;
19944;SDS011;10134;50.952;6.930;2023-12-20T10:23:15;8.80;;;3.47;;
19944;SDS011;10134;50.952;6.930;2023-12-20T10:25:54;11.75;;;2.78;;
19944;SDS011;10134;50.952;6.930;2023-12-20T10:28:33;11.02;;;3.50;;
19944;SDS011;10134;50.952;6.930;2023-12-20T10:31:06;16.88;;;4.10;;
19944;SDS011;10134;50.952;6.930;2023-12-20T10:33:44;13.40;;;3.20;;
19944;SDS011;10134;50.952;6.930;2023-12-20T10:36:15;14.23;;;3.53;;
19944;SDS011;10134;50.952;6.930;2023-12-20T10:38:44;8.87;;;3.70;;
19944;SDS011;10134;50.952;6.930;2023-12-20T10:41:20;11.77;;;3.43;;
19944;SDS011;10134;50.952;6.930;2023-12-20T10:43:58;8.80;;;2.85;;
19944;SDS011;10134;50.952;6.930;2023-12-20T10:46:30;9.63;;;3.53;;
19944;SDS011;10134;50.952;6.930;2023-12-20T10:49:00;12.05;;;3.42;;
19944;SDS011;10134;50.952;6.930;2023-12-20T10:52:25;8.43;;;3.30;;
19944;SDS011;10134;50.952;6.930;2023-12-20T10:55:00;10.80;;;3.83;;
19944;SDS011;10134;50.952;6.930;2023-12-20T10:57:32;6.60;;;2.90;;
19944;SDS011;10134;50.952;6.930;2023-12-20T11:00:04;11.13;;;3.22;;
19944;SDS011;10134;50.952;6.930;2023-12-20T11:02:38;3.97;;;2.60;;
19944;SDS011;10134;50.952;6.930;2023-12-20T11:05:13;11.95;;;3.22;;
19944;SDS011;10134;50.952;6.930;2023-12-20T11:08:01;13.87;;;2.90;;
19944;SDS011;10134;50.952;6.930;2023-12-20T11:10:48;12.10;;;3.45;;
19944;SDS011;10134;50.952;6.930;2023-12-20T11:13:28;11.77;;;2.90;;
19944;SDS011;10134;50.952;6.930;2023-12-20T11:16:12;10.23;;;3.42;;
19944;SDS011;10134;50.952;6.930;2023-12-20T11:18:41;6.80;;;2.72;;
19944;SDS011;10134;50.952;6.930;2023-12-20T11:21:13;7.97;;;2.80;;
19944;SDS011;10134;50.952;6.930;2023-12-20T11:23:47;11.80;;;4.32;;
19944;SDS011;10134;50.952;6.930;2023-12-20T11:26:22;9.02;;;3.00;;
19944;SDS011;10134;50.952;6.930;2023-12-20T11:29:29;10.00;;;3.70;;
19944;SDS011;10134;50.952;6.930;2023-12-20T11:32:00;7.50;;;2.63;;
19944;SDS011;10134;50.952;6.930;2023-12-20T11:34:33;7.50;;;2.80;;
19944;SDS011;10134;50.952;6.930;2023-12-20T11:37:05;12.30;;;2.80;;
19944;SDS011;10134;50.952;6.930;2023-12-20T11:43:29;12.18;;;3.05;;
19944;SDS011;10134;50.952;6.930;2023-12-20T11:46:08;5.80;;;2.72;;
19944;SDS011;10134;50.952;6.930;2023-12-20T11:48:45;11.63;;;3.40;;
19944;SDS011;10134;50.952;6.930;2023-12-20T11:51:22;13.05;;;3.00;;
19944;SDS011;10134;50.952;6.930;2023-12-20T11:54:09;7.93;;;3.35;;
19944;SDS011;10134;50.952;6.930;2023-12-20T11:56:51;11.52;;;2.90;;
19944;SDS011;10134;50.952;6.930;2023-12-20T11:59:21;14.77;;;3.85;;
19944;SDS011;10134;50.952;6.930;2023-12-20T12:01:54;11.05;;;3.60;;
19944;SDS011;10134;50.952;6.930;2023-12-20T12:04:29;14.67;;;3.33;;
19944;SDS011;10134;50.952;6.930;2023-12-20T12:07:08;10.93;;;2.92;;
19944;SDS011;10134;50.952;6.930;2023-12-20T12:09:45;10.45;;;3.17;;
19944;SDS011;10134;50.952;6.930;2023-12-20T12:12:29;7.40;;;3.28;;
19944;SDS011;10134;50.952;6.930;2023-12-20T12:15:30;11.68;;;4.28;;
19944;SDS011;10134;50.952;6.930;2023-12-20T12:18:26;13.90;;;3.78;;
19944;SDS011;10134;50.952;6.930;2023-12-20T12:28:44;16.98;;;3.20;;
19944;SDS011;10134;50.952;6.930;2023-12-20T12:31:26;9.15;;;3.28;;
19944;SDS011;10134;50.952;6.930;2023-12-20T12:34:01;11.40;;;4.78;;
19944;SDS011;10134;50.952;6.930;2023-12-20T12:36:32;16.30;;;6.25;;
19944;SDS011;10134;50.952;6.930;2023-12-20T12:39:05;16.13;;;6.32;;
19944;SDS011;10134;50.952;6.930;2023-12-20T12:41:39;13.60;;;4.28;;
19944;SDS011;10134;50.952;6.930;2023-12-20T12:44:13;14.43;;;5.53;;
19944;SDS011;10134;50.952;6.930;2023-12-20T12:46:45;11.07;;;4.25;;
19944;SDS011;10134;50.952;6.930;2023-12-20T12:49:25;19.05;;;4.13;;
19944;SDS011;10134;50.952;6.930;2023-12-20T12:51:58;14.48;;;4.68;;
19944;SDS011;10134;50.952;6.930;2023-12-20T12:54:30;9.85;;;4.05;;
19944;SDS011;10134;50.952;6.930;2023-12-20T12:57:09;10.50;;;4.32;;
19944;SDS011;10134;50.952;6.930;2023-12-20T12:59:48;8.50;;;3.28;;
19944;SDS011;10134;50.952;6.930;2023-12-20T13:02:20;12.57;;;3.95;;
19944;SDS011;10134;50.952;6.930;2023-12-20T13:04:52;8.02;;;3.00;;
19944;SDS011;10134;50.952;6.930;2023-12-20T13:07:22;12.18;;;3.53;;
19944;SDS011;10134;50.952;6.930;2023-12-20T13:09:52;14.25;;;4.13;;
19944;SDS011;10134;50.952;6.930;2023-12-20T13:12:24;9.40;;;3.38;;
19944;SDS011;10134;50.952;6.930;2023-12-20T13:14:54;12.10;;;3.75;;
19944;SDS011;10134;50.952;6.930;2023-12-20T13:17:25;11.30;;;4.05;;
19944;SDS011;10134;50.952;6.930;2023-12-20T13:19:57;11.73;;;3.58;;
19944;SDS011;10134;50.952;6.930;2023-12-20T13:22:27;11.27;;;3.92;;
19944;SDS011;10134;50.952;6.930;2023-12-20T13:24:57;12.23;;;4.05;;
19944;SDS011;10134;50.952;6.930;2023-12-20T13:27:30;7.68;;;3.13;;
19944;SDS011;10134;50.952;6.930;2023-12-20T13:30:02;14.60;;;4.00;;
19944;SDS011;10134;50.952;6.930;2023-12-20T13:32:39;8.20;;;4.03;;
19944;SDS011;10134;50.952;6.930;2023-12-20T13:35:10;14.32;;;4.47;;
19944;SDS011;10134;50.952;6.930;2023-12-20T13:37:41;17.42;;;4.55;;
19944;SDS011;10134;50.952;6.930;2023-12-20T13:40:14;11.85;;;3.47;;
19944;SDS011;10134;50.952;6.930;2023-12-20T13:42:48;9.65;;;3.42;;
19944;SDS011;10134;50.952;6.930;2023-12-20T13:45:19;7.15;;;3.40;;
19944;SDS011;10134;50.952;6.930;2023-12-20T13:47:51;10.68;;;4.15;;
19944;SDS011;10134;50.952;6.930;2023-12-20T13:50:30;11.25;;;3.90;;
19944;SDS011;10134;50.952;6.930;2023-12-20T13:53:00;10.07;;;4.20;;
19944;SDS011;10134;50.952;6.930;2023-12-20T13:55:34;11.70;;;4.25;;
19944;SDS011;10134;50.952;6.930;2023-12-20T13:58:10;7.60;;;3.08;;
19944;SDS011;10134;50.952;6.930;2023-12-20T14:00:42;8.82;;;4.40;;
19944;SDS011;10134;50.952;6.930;2023-12-20T14:03:13;13.65;;;4.05;;
19944;SDS011;10134;50.952;6.930;2023-12-20T14:05:48;10.50;;;3.97;;
19944;SDS011;10134;50.952;6.930;2023-12-20T14:08:19;11.85;;;3.38;;
19944;SDS011;10134;50.952;6.930;2023-12-20T14:10:49;19.42;;;4.32;;
19944;SDS011;10134;50.952;6.930;2023-12-20T14:13:22;8.57;;;3.70;;
19944;SDS011;10134;50.952;6.930;2023-12-20T14:15:58;5.25;;;3.08;;
19944;SDS011;10134;50.952;6.930;2023-12-20T14:18:31;7.00;;;3.72;;
19944;SDS011;10134;50.952;6.930;2023-12-20T14:21:07;17.67;;;4.13;;
19944;SDS011;10134;50.952;6.930;2023-12-20T14:23:37;8.18;;;4.03;;
19944;SDS011;10134;50.952;6.930;2023-12-20T14:26:07;9.60;;;3.80;;
19944;SDS011;10134;50.952;6.930;2023-12-20T14:28:43;7.32;;;4.15;;
19944;SDS011;10134;50.952;6.930;2023-12-20T14:31:16;11.82;;;3.70;;
19944;SDS011;10134;50.952;6.930;2023-12-20T14:33:45;6.43;;;3.35;;
19944;SDS011;10134;50.952;6.930;2023-12-20T14:36:14;14.30;;;3.63;;
19944;SDS011;10134;50.952;6.930;2023-12-20T14:38:45;8.63;;;4.05;;
19944;SDS011;10134;50.952;6.930;2023-12-20T14:41:14;12.10;;;4.22;;
19944;SDS011;10134;50.952;6.930;2023-12-20T14:43:44;9.52;;;3.03;;
19944;SDS011;10134;50.952;6.930;2023-12-20T14:46:13;8.63;;;3.28;;
19944;SDS011;10134;50.952;6.930;2023-12-20T14:48:43;8.38;;;3.92;;
19944;SDS011;10134;50.952;6.930;2023-12-20T14:51:13;6.82;;;3.33;;
19944;SDS011;10134;50.952;6.930;2023-12-20T14:53:42;15.55;;;3.70;;
19944;SDS011;10134;50.952;6.930;2023-12-20T14:56:10;12.05;;;3.33;;
19944;SDS011;10134;50.952;6.930;2023-12-20T14:58:39;7.53;;;3.13;;
19944;SDS011;10134;50.952;6.930;2023-12-20T15:01:08;13.85;;;3.92;;
19944;SDS011;10134;50.952;6.930;2023-12-20T15:03:37;11.13;;;3.35;;
19944;SDS011;10134;50.952;6.930;2023-12-20T15:06:12;8.73;;;3.03;;
19944;SDS011;10134;50.952;6.930;2023-12-20T15:08:40;6.65;;;3.03;;
19944;SDS011;10134;50.952;6.930;2023-12-20T15:11:09;10.27;;;2.85;;
19944;SDS011;10134;50.952;6.930;2023-12-20T15:13:40;8.50;;;2.88;;
19944;SDS011;10134;50.952;6.930;2023-12-20T15:16:09;8.23;;;2.88;;